Terminal Aerodrome Forecast
Issued by NWS

Home | Current Version | Previous Version | Graphics & Text | Print | Product List | Glossary On
Versions: 1 2 3 4 5 6 7 8 9 10 11 12 13 14 15 16 17 18 19 20 21 22 23 24 25 26 27 28 29 30 31 32 33 34 35 36
000
FTUS43 KGRB 162332
TAFATW
TAF
KATW 162332Z 1700/1724 11005KT 3SM -FZRA BR SCT015 OVC030
      TEMPO 1700/1701 1SM -FZRAPL BR BKN015
     FM170100 08005KT 2SM -FZRAPL BR OVC006
     FM170400 05008KT 1 1/2SM -FZRAPL BR OVC005
     FM170800 03009KT 1 1/2SM -FZRA BR OVC004
     FM171500 01009KT 2SM -FZRA BR OVC010
     FM172000 33007KT P6SM BKN030=

USA.gov is the U.S. government's official web portal to all federal, state and local government web resources and services.